createdAt,value
2023-02-23T00:01:19.910Z,13.20
2023-02-23T00:04:00.231Z,13.00
2023-02-23T00:06:36.739Z,14.00
2023-02-23T00:09:13.512Z,13.33
2023-02-23T00:11:43.317Z,14.00
2023-02-23T00:14:15.546Z,13.27
2023-02-23T00:16:51.072Z,12.67
2023-02-23T00:19:24.986Z,12.90
2023-02-23T00:22:01.903Z,14.80
2023-02-23T00:24:38.862Z,13.50
2023-02-23T00:27:13.501Z,14.37
2023-02-23T00:29:43.980Z,13.57
2023-02-23T00:32:15.666Z,14.20
2023-02-23T00:34:45.082Z,13.80
2023-02-23T00:37:15.797Z,14.73
2023-02-23T00:39:46.209Z,14.17
2023-02-23T00:42:16.905Z,13.40
2023-02-23T00:44:49.346Z,14.53
2023-02-23T00:47:23.888Z,13.47
2023-02-23T00:49:57.950Z,13.40
2023-02-23T00:52:33.007Z,15.00
2023-02-23T00:55:07.647Z,14.97
2023-02-23T00:57:44.431Z,15.20
2023-02-23T01:00:28.749Z,15.30
2023-02-23T01:02:59.982Z,14.43
2023-02-23T01:05:32.242Z,15.07
2023-02-23T01:08:09.599Z,15.33
2023-02-23T01:10:46.900Z,14.57
2023-02-23T01:13:18.533Z,14.47
2023-02-23T01:15:49.133Z,15.83
2023-02-23T01:18:20.053Z,15.40
2023-02-23T01:20:52.183Z,15.20
2023-02-23T01:23:27.001Z,15.27
2023-02-23T01:25:57.421Z,14.93
2023-02-23T01:28:33.551Z,15.57
2023-02-23T01:31:03.033Z,15.30
2023-02-23T01:33:34.304Z,16.97
2023-02-23T01:36:03.848Z,17.23
2023-02-23T01:38:37.315Z,15.67
2023-02-23T01:41:11.439Z,15.97
2023-02-23T01:44:07.493Z,15.40
2023-02-23T01:46:40.114Z,16.43
2023-02-23T01:49:11.971Z,16.10
2023-02-23T01:51:44.417Z,15.47
2023-02-23T01:54:20.477Z,15.40
2023-02-23T01:56:58.424Z,16.70
2023-02-23T01:59:35.291Z,15.93
2023-02-23T02:02:09.104Z,14.47
2023-02-23T02:04:52.435Z,16.63
2023-02-23T02:07:26.298Z,17.20
2023-02-23T02:10:15.309Z,16.57
2023-02-23T02:12:54.300Z,16.20
2023-02-23T02:15:27.687Z,16.40
2023-02-23T02:18:03.440Z,16.30
2023-02-23T02:20:55.134Z,14.90
2023-02-23T02:24:09.563Z,16.30
2023-02-23T02:27:03.298Z,15.50
2023-02-23T02:30:14.091Z,15.60
2023-02-23T02:33:32.206Z,15.50
2023-02-23T02:36:27.122Z,15.10
2023-02-23T02:39:35.980Z,16.63
2023-02-23T02:42:15.168Z,16.43
2023-02-23T02:44:59.371Z,15.77
2023-02-23T02:47:33.120Z,16.10
2023-02-23T02:50:18.045Z,17.27
2023-02-23T02:52:54.887Z,17.00
2023-02-23T02:55:42.387Z,17.27
2023-02-23T02:58:16.217Z,17.40
2023-02-23T03:01:07.292Z,17.50
2023-02-23T03:03:57.700Z,17.47
2023-02-23T03:06:49.741Z,16.93
2023-02-23T03:09:46.917Z,19.00
2023-02-23T03:12:53.156Z,17.60
2023-02-23T03:16:19.159Z,18.27
2023-02-23T03:19:17.145Z,16.20
2023-02-23T03:22:08.234Z,16.13
2023-02-23T03:25:05.677Z,16.70
2023-02-23T03:28:04.171Z,16.33
2023-02-23T03:31:01.247Z,16.93
2023-02-23T03:33:58.535Z,16.17
2023-02-23T03:36:47.201Z,17.67
2023-02-23T03:39:43.180Z,15.93
2023-02-23T03:42:37.998Z,17.00
2023-02-23T03:45:30.235Z,15.83
2023-02-23T03:48:19.909Z,16.13
2023-02-23T03:51:13.599Z,15.93
2023-02-23T03:54:07.892Z,16.67
2023-02-23T03:56:59.215Z,17.10
2023-02-23T03:59:50.236Z,16.67
2023-02-23T04:02:42.420Z,16.57
2023-02-23T04:05:34.206Z,16.23
2023-02-23T04:08:28.478Z,18.30
2023-02-23T04:11:25.230Z,17.17
2023-02-23T04:14:02.792Z,17.60
2023-02-23T04:16:32.629Z,16.67
2023-02-23T04:19:16.201Z,17.93
2023-02-23T04:21:44.571Z,17.50
2023-02-23T04:24:21.055Z,17.43
2023-02-23T04:26:52.631Z,16.10
2023-02-23T04:29:30.611Z,16.23
2023-02-23T04:32:01.348Z,18.53
2023-02-23T04:34:32.590Z,17.83
2023-02-23T04:37:00.913Z,16.37
2023-02-23T04:39:30.508Z,15.87
2023-02-23T04:42:01.547Z,16.73
2023-02-23T04:44:38.255Z,15.50
2023-02-23T04:47:07.566Z,15.63
2023-02-23T04:49:53.695Z,16.37
2023-02-23T04:52:23.537Z,15.90
2023-02-23T04:54:52.971Z,14.73
2023-02-23T04:57:34.049Z,15.67
2023-02-23T05:00:05.922Z,15.70
2023-02-23T05:02:34.422Z,15.73
2023-02-23T05:05:05.694Z,16.37
2023-02-23T05:07:36.661Z,14.80
2023-02-23T05:10:11.058Z,15.33
2023-02-23T05:12:42.962Z,14.83
2023-02-23T05:15:12.773Z,13.33
2023-02-23T05:17:49.871Z,15.43
2023-02-23T05:20:29.241Z,15.33
2023-02-23T05:23:00.595Z,15.10
2023-02-23T05:25:33.676Z,15.67
2023-02-23T05:28:03.490Z,14.60
2023-02-23T05:30:36.777Z,14.77
2023-02-23T05:33:06.965Z,15.20
2023-02-23T05:35:41.144Z,15.30
2023-02-23T05:38:14.932Z,15.00
2023-02-23T05:40:44.515Z,16.40
2023-02-23T05:43:13.004Z,14.60
2023-02-23T05:45:52.499Z,15.80
2023-02-23T05:48:24.124Z,14.90
2023-02-23T05:51:05.429Z,16.30
2023-02-23T05:53:36.761Z,17.00
2023-02-23T05:56:09.106Z,16.93
2023-02-23T05:58:38.056Z,16.37
2023-02-23T06:01:07.310Z,16.63
2023-02-23T06:03:55.762Z,15.43
2023-02-23T06:06:28.602Z,16.27
2023-02-23T06:08:59.414Z,17.17
2023-02-23T06:11:33.056Z,17.07
2023-02-23T06:14:02.635Z,17.60
2023-02-23T06:16:33.817Z,17.43
2023-02-23T06:19:05.732Z,18.20
2023-02-23T06:21:38.195Z,17.53
2023-02-23T06:24:15.494Z,17.97
2023-02-23T06:26:47.371Z,18.20
2023-02-23T06:29:17.151Z,17.73
2023-02-23T06:31:47.746Z,18.60
2023-02-23T06:34:21.586Z,18.00
2023-02-23T06:36:54.182Z,17.50
2023-02-23T06:39:28.879Z,18.00
2023-02-23T06:41:59.357Z,19.77
2023-02-23T06:44:31.098Z,18.37
2023-02-23T06:47:09.082Z,18.63
2023-02-23T06:49:44.616Z,20.03
2023-02-23T06:52:15.064Z,16.73
2023-02-23T06:54:43.426Z,18.30
2023-02-23T06:57:11.799Z,18.40
2023-02-23T06:59:43.583Z,19.50
2023-02-23T07:02:19.936Z,19.27
2023-02-23T07:04:49.328Z,17.93
2023-02-23T07:07:27.242Z,19.07
2023-02-23T07:09:57.610Z,19.03
2023-02-23T07:12:28.432Z,18.00
2023-02-23T07:15:03.163Z,18.23
2023-02-23T07:17:33.776Z,17.87
2023-02-23T07:20:10.251Z,18.30
2023-02-23T07:22:42.716Z,19.37
2023-02-23T07:25:16.743Z,19.27
2023-02-23T07:27:48.652Z,19.00
2023-02-23T07:30:19.840Z,19.50
2023-02-23T07:32:49.034Z,19.00
2023-02-23T07:35:19.884Z,19.50
2023-02-23T07:38:00.165Z,19.00
2023-02-23T07:40:29.634Z,18.90
2023-02-23T07:43:08.071Z,20.10
2023-02-23T07:45:36.583Z,19.33
2023-02-23T07:48:16.437Z,19.67
2023-02-23T07:50:50.064Z,19.60
2023-02-23T07:53:22.380Z,20.33
2023-02-23T07:55:57.409Z,19.00
2023-02-23T07:58:26.759Z,20.30
2023-02-23T08:00:57.041Z,19.43
2023-02-23T08:03:26.312Z,20.00
2023-02-23T08:05:59.883Z,19.67
2023-02-23T08:08:41.508Z,19.20
2023-02-23T08:11:25.048Z,19.30
2023-02-23T08:14:02.186Z,19.77
2023-02-23T08:16:42.779Z,18.17
2023-02-23T08:19:14.799Z,18.20
2023-02-23T08:21:46.599Z,17.60
2023-02-23T08:24:24.146Z,17.67
2023-02-23T08:26:55.933Z,18.30
2023-02-23T08:29:24.668Z,18.07
2023-02-23T08:31:56.332Z,17.90
2023-02-23T08:34:26.548Z,17.40
2023-02-23T08:36:54.614Z,17.93
2023-02-23T08:39:28.883Z,17.63
2023-02-23T08:42:00.570Z,17.63
2023-02-23T08:44:39.362Z,17.60
2023-02-23T08:47:16.537Z,18.80
2023-02-23T08:49:48.597Z,17.27
2023-02-23T08:52:18.296Z,17.23
2023-02-23T08:54:50.997Z,17.77
2023-02-23T08:57:28.019Z,17.90
2023-02-23T08:59:58.413Z,16.80
2023-02-23T09:02:32.760Z,16.90
2023-02-23T09:05:01.235Z,17.10
2023-02-23T09:07:32.772Z,16.73
2023-02-23T09:10:02.872Z,18.07
2023-02-23T09:12:34.548Z,17.27
2023-02-23T09:15:06.321Z,15.97
2023-02-23T09:17:45.014Z,16.30
2023-02-23T09:20:19.906Z,17.80
2023-02-23T09:22:50.811Z,19.10
2023-02-23T09:25:26.016Z,18.37
2023-02-23T09:27:58.405Z,17.20
2023-02-23T09:30:28.741Z,17.13
2023-02-23T09:32:58.795Z,17.07
2023-02-23T09:35:30.096Z,17.37
2023-02-23T09:38:06.199Z,16.60
2023-02-23T09:40:49.119Z,16.90
2023-02-23T09:43:27.319Z,16.63
2023-02-23T09:46:02.038Z,16.90
2023-02-23T09:48:41.648Z,16.97
2023-02-23T09:51:23.699Z,16.37
2023-02-23T09:54:00.085Z,17.60
2023-02-23T09:56:40.298Z,15.97
2023-02-23T09:59:20.776Z,17.27
2023-02-23T10:02:23.033Z,17.93
2023-02-23T10:04:57.389Z,18.70
2023-02-23T10:07:30.636Z,18.93
2023-02-23T10:10:12.000Z,19.00
2023-02-23T10:12:48.394Z,18.40
2023-02-23T10:15:32.400Z,18.43
2023-02-23T10:18:06.722Z,19.20
2023-02-23T10:20:44.083Z,18.90
2023-02-23T10:23:16.788Z,18.00
2023-02-23T10:25:49.961Z,19.33
2023-02-23T10:28:31.118Z,19.83
2023-02-23T10:31:01.896Z,18.93
2023-02-23T10:33:45.215Z,17.00
2023-02-23T10:36:23.217Z,18.63
2023-02-23T10:38:54.093Z,18.07
2023-02-23T10:41:31.228Z,18.47
2023-02-23T10:44:15.653Z,19.30
2023-02-23T10:46:47.936Z,18.00
2023-02-23T10:49:24.840Z,18.90
2023-02-23T10:51:58.195Z,17.97
2023-02-23T10:54:45.794Z,18.80
2023-02-23T10:57:20.501Z,20.37
2023-02-23T11:00:11.862Z,18.63
2023-02-23T11:02:42.421Z,19.17
2023-02-23T11:05:32.397Z,18.73
2023-02-23T11:08:25.155Z,18.80
2023-02-23T11:11:17.164Z,19.57
2023-02-23T11:13:48.811Z,18.90
2023-02-23T11:16:23.512Z,20.93
2023-02-23T11:18:58.151Z,20.53
2023-02-23T11:21:35.723Z,19.50
2023-02-23T11:24:16.515Z,20.80
2023-02-23T11:26:54.935Z,20.27
2023-02-23T11:29:27.326Z,20.10
2023-02-23T11:32:10.180Z,19.23
2023-02-23T11:34:53.713Z,20.20
2023-02-23T11:37:23.760Z,19.83
2023-02-23T11:39:53.696Z,20.50
2023-02-23T11:42:33.510Z,20.90
2023-02-23T11:45:04.868Z,20.73
2023-02-23T11:47:49.952Z,21.23
2023-02-23T11:50:25.425Z,21.70
2023-02-23T11:53:01.769Z,20.60
2023-02-23T11:55:41.274Z,20.10
2023-02-23T11:58:27.021Z,19.77
2023-02-23T12:00:57.825Z,20.10
2023-02-23T12:03:44.548Z,20.47
2023-02-23T12:06:23.103Z,19.87
2023-02-23T12:08:55.743Z,19.77
2023-02-23T12:11:29.853Z,19.80
2023-02-23T12:14:06.799Z,20.20
2023-02-23T12:16:45.414Z,20.90
2023-02-23T12:19:31.956Z,21.77
2023-02-23T12:22:09.462Z,18.87
2023-02-23T12:24:51.447Z,20.30
2023-02-23T12:27:24.342Z,20.00
2023-02-23T12:30:08.442Z,19.07
2023-02-23T12:32:51.375Z,20.10
2023-02-23T12:35:29.550Z,17.93
2023-02-23T12:38:04.239Z,18.97
2023-02-23T12:40:44.337Z,19.97
2023-02-23T12:43:24.890Z,20.17
2023-02-23T12:45:56.207Z,19.13
2023-02-23T12:48:34.811Z,20.60
2023-02-23T12:51:14.285Z,19.23
2023-02-23T12:53:55.442Z,20.30
2023-02-23T12:56:39.579Z,18.47
2023-02-23T12:59:19.194Z,18.30
2023-02-23T13:01:58.326Z,20.17
2023-02-23T13:05:13.302Z,19.30
2023-02-23T13:07:52.769Z,20.13
2023-02-23T13:10:33.392Z,19.87
2023-02-23T13:13:12.837Z,19.93
2023-02-23T13:15:52.988Z,21.00
2023-02-23T13:18:27.724Z,20.10
2023-02-23T13:21:07.654Z,20.00
2023-02-23T13:23:42.966Z,25.80
2023-02-23T13:26:24.938Z,33.50
2023-02-23T13:28:58.845Z,21.60
2023-02-23T13:31:30.662Z,21.20
2023-02-23T13:34:02.160Z,19.60
2023-02-23T13:36:41.333Z,20.07
2023-02-23T13:39:39.729Z,20.30
2023-02-23T13:42:38.316Z,19.80
2023-02-23T13:45:48.659Z,17.77
2023-02-23T13:48:47.330Z,20.67
2023-02-23T13:51:32.239Z,19.90
2023-02-23T13:54:02.887Z,18.10
2023-02-23T13:56:44.100Z,18.87
2023-02-23T13:59:21.970Z,18.77
2023-02-23T14:01:54.304Z,18.13
2023-02-23T14:04:33.570Z,17.70
2023-02-23T14:07:06.893Z,18.17
2023-02-23T14:09:40.142Z,17.97
2023-02-23T14:12:31.806Z,17.80
2023-02-23T14:15:45.340Z,17.50
2023-02-23T14:18:32.952Z,17.47
2023-02-23T14:21:09.734Z,17.60
2023-02-23T14:24:18.780Z,15.03
2023-02-23T14:27:40.370Z,19.77
2023-02-23T14:30:50.039Z,18.03
2023-02-23T14:33:50.400Z,17.50
2023-02-23T14:36:46.908Z,16.30
2023-02-23T14:39:29.137Z,16.30
2023-02-23T14:42:03.104Z,16.80
2023-02-23T14:44:36.715Z,17.10
2023-02-23T14:47:15.943Z,15.80
2023-02-23T14:49:50.276Z,15.03
2023-02-23T14:52:27.972Z,14.87
2023-02-23T14:55:19.805Z,15.10
2023-02-23T14:57:56.480Z,14.70
2023-02-23T15:00:28.254Z,15.53
2023-02-23T15:03:09.273Z,14.80
2023-02-23T15:05:53.724Z,13.53
2023-02-23T15:08:25.688Z,13.90
2023-02-23T15:11:05.539Z,13.17
2023-02-23T15:16:09.058Z,12.60
2023-02-23T15:19:31.973Z,13.00
2023-02-23T15:22:28.891Z,14.50
2023-02-23T15:25:01.673Z,13.20
2023-02-23T15:27:45.196Z,13.40
2023-02-23T15:30:52.506Z,15.03
2023-02-23T15:33:28.883Z,14.13
2023-02-23T15:36:14.525Z,15.90
2023-02-23T15:38:53.020Z,16.10
2023-02-23T15:41:39.507Z,15.87
2023-02-23T15:44:18.942Z,17.00
2023-02-23T15:46:52.976Z,16.50
2023-02-23T15:49:24.785Z,16.73
2023-02-23T15:52:05.646Z,15.80
2023-02-23T15:55:00.780Z,16.93
2023-02-23T15:57:33.093Z,17.23
2023-02-23T16:00:14.387Z,15.33
2023-02-23T16:02:52.206Z,15.20
2023-02-23T16:05:25.710Z,17.00
2023-02-23T16:08:07.089Z,17.37
2023-02-23T16:10:51.305Z,16.50
2023-02-23T16:13:25.055Z,16.67
2023-02-23T16:15:56.415Z,16.90
2023-02-23T16:18:38.549Z,16.83
2023-02-23T16:21:23.529Z,16.23
2023-02-23T16:23:56.579Z,15.13
2023-02-23T16:26:52.982Z,17.17
2023-02-23T16:29:31.318Z,16.50
2023-02-23T16:32:03.541Z,17.87
2023-02-23T16:34:37.648Z,19.80
2023-02-23T16:37:20.306Z,19.30
2023-02-23T16:40:02.571Z,20.10
2023-02-23T16:42:41.254Z,19.60
2023-02-23T16:45:21.643Z,18.33
2023-02-23T16:48:02.772Z,17.90
2023-02-23T16:50:41.816Z,19.30
2023-02-23T16:53:24.377Z,17.63
2023-02-23T16:56:12.582Z,20.10
2023-02-23T16:58:52.116Z,20.50
2023-02-23T17:01:26.350Z,20.17
2023-02-23T17:03:59.679Z,20.10
2023-02-23T17:06:31.236Z,18.30
2023-02-23T17:09:10.038Z,20.27
2023-02-23T17:11:41.068Z,20.33
2023-02-23T17:14:27.547Z,19.60
2023-02-23T17:17:10.893Z,19.17
2023-02-23T17:19:53.888Z,19.40
2023-02-23T17:22:33.367Z,19.37
2023-02-23T17:25:03.285Z,19.40
2023-02-23T17:28:04.613Z,20.07
2023-02-23T17:30:46.108Z,19.97
2023-02-23T17:33:19.492Z,19.37
2023-02-23T17:35:56.069Z,20.03
2023-02-23T17:38:37.130Z,21.10
2023-02-23T17:41:12.942Z,19.73
2023-02-23T17:43:45.877Z,20.90
2023-02-23T17:46:18.387Z,19.57
2023-02-23T17:48:50.703Z,20.60
2023-02-23T17:51:25.410Z,21.33
2023-02-23T17:54:16.617Z,21.87
2023-02-23T17:56:55.128Z,20.53
2023-02-23T17:59:29.935Z,22.00
2023-02-23T18:02:22.919Z,20.77
2023-02-23T18:04:54.937Z,21.40
2023-02-23T18:07:30.345Z,19.47
2023-02-23T18:10:05.636Z,20.50
2023-02-23T18:12:53.078Z,20.00
2023-02-23T18:15:32.193Z,19.73
2023-02-23T18:18:30.486Z,19.20
2023-02-23T18:21:03.911Z,22.20
2023-02-23T18:23:36.690Z,20.50
2023-02-23T18:26:14.444Z,19.50
2023-02-23T18:28:47.133Z,20.10
2023-02-23T18:31:24.003Z,20.77
2023-02-23T18:34:25.216Z,18.50
2023-02-23T18:36:59.127Z,19.90
2023-02-23T18:39:32.012Z,20.20
2023-02-23T18:42:03.256Z,19.77
2023-02-23T18:44:44.693Z,18.90
2023-02-23T18:47:18.831Z,19.77
2023-02-23T18:49:52.917Z,19.70
2023-02-23T18:52:34.708Z,19.63
2023-02-23T18:55:11.502Z,18.77
2023-02-23T18:57:57.296Z,18.33
2023-02-23T19:00:35.436Z,20.60
2023-02-23T19:03:22.289Z,18.93
2023-02-23T19:05:59.836Z,18.77
2023-02-23T19:08:42.952Z,19.57
2023-02-23T19:11:24.903Z,19.57
2023-02-23T19:14:01.579Z,19.10
2023-02-23T19:16:47.160Z,19.00
2023-02-23T19:19:27.557Z,19.90
2023-02-23T19:22:25.195Z,21.63
2023-02-23T19:25:04.103Z,19.60
2023-02-23T19:27:43.898Z,19.83
2023-02-23T19:30:24.200Z,20.10
2023-02-23T19:33:03.039Z,19.20
2023-02-23T19:35:38.987Z,18.90
2023-02-23T19:38:37.590Z,19.83
2023-02-23T19:41:17.276Z,18.30
2023-02-23T19:43:47.723Z,20.67
2023-02-23T19:46:25.798Z,20.43
2023-02-23T19:49:01.063Z,21.37
2023-02-23T19:51:40.426Z,19.57
2023-02-23T19:54:14.859Z,19.67
2023-02-23T19:56:45.901Z,20.33
2023-02-23T19:59:17.504Z,21.07
2023-02-23T20:01:54.670Z,20.77
2023-02-23T20:04:29.129Z,20.20
2023-02-23T20:07:13.869Z,20.17
2023-02-23T20:10:11.182Z,18.23
2023-02-23T20:12:59.794Z,20.63
2023-02-23T20:15:45.761Z,21.20
2023-02-23T20:18:19.064Z,20.90
2023-02-23T20:21:02.842Z,21.20
2023-02-23T20:23:39.948Z,21.57
2023-02-23T20:26:31.318Z,20.20
2023-02-23T20:29:13.638Z,20.30
2023-02-23T20:31:53.528Z,20.10
2023-02-23T20:37:32.120Z,21.07
2023-02-23T20:40:11.153Z,18.97
2023-02-23T20:42:45.804Z,21.90
2023-02-23T20:45:30.769Z,21.47
2023-02-23T20:48:16.576Z,20.13
2023-02-23T20:50:59.204Z,21.23
2023-02-23T20:53:30.941Z,20.67
2023-02-23T20:56:15.339Z,21.23
2023-02-23T21:01:40.547Z,20.00
2023-02-23T21:04:13.406Z,20.73
2023-02-23T21:06:46.155Z,19.97
2023-02-23T21:09:29.905Z,21.43
2023-02-23T21:12:00.914Z,20.37
2023-02-23T21:14:35.339Z,19.53
2023-02-23T21:17:10.558Z,20.73
2023-02-23T21:19:50.079Z,20.77
2023-02-23T21:22:31.778Z,21.60
2023-02-23T21:25:14.432Z,21.50
2023-02-23T21:27:50.670Z,22.03
2023-02-23T21:30:35.134Z,22.37
2023-02-23T21:33:17.463Z,20.00
2023-02-23T21:35:47.595Z,19.93
2023-02-23T21:38:17.085Z,20.43
2023-02-23T21:40:48.751Z,20.70
2023-02-23T21:43:29.608Z,22.03
2023-02-23T21:46:19.960Z,21.03
2023-02-23T21:48:57.618Z,20.93
2023-02-23T21:51:36.686Z,20.53
2023-02-23T21:54:14.028Z,22.43
2023-02-23T21:56:43.718Z,20.60
2023-02-23T21:59:16.617Z,20.00
2023-02-23T22:01:53.766Z,21.70
2023-02-23T22:04:25.091Z,21.63
2023-02-23T22:06:55.999Z,21.80
2023-02-23T22:09:27.694Z,21.60
2023-02-23T22:12:01.173Z,22.70
2023-02-23T22:14:29.533Z,22.50
2023-02-23T22:17:04.003Z,22.47
2023-02-23T22:19:35.914Z,21.90
2023-02-23T22:22:04.633Z,21.70
2023-02-23T22:24:34.503Z,22.87
2023-02-23T22:27:04.680Z,22.80
2023-02-23T22:29:38.669Z,22.53
2023-02-23T22:32:13.822Z,22.03
2023-02-23T22:34:43.781Z,21.90
2023-02-23T22:37:13.980Z,24.03
2023-02-23T22:39:51.084Z,22.33
2023-02-23T22:42:22.178Z,21.63
2023-02-23T22:44:59.933Z,22.60
2023-02-23T22:47:34.944Z,23.60
2023-02-23T22:50:07.023Z,23.37
2023-02-23T22:52:41.175Z,24.30
2023-02-23T22:55:24.386Z,23.17
2023-02-23T22:57:55.208Z,23.93
2023-02-23T23:00:27.922Z,22.53
2023-02-23T23:03:12.351Z,23.10
2023-02-23T23:05:44.045Z,22.23
2023-02-23T23:08:18.067Z,24.37
2023-02-23T23:10:50.804Z,20.63
2023-02-23T23:13:23.098Z,23.70
2023-02-23T23:15:55.236Z,22.07
2023-02-23T23:18:42.464Z,22.70
2023-02-23T23:21:17.466Z,22.70
2023-02-23T23:23:48.761Z,23.63
2023-02-23T23:26:20.226Z,22.23
2023-02-23T23:28:50.931Z,23.37
2023-02-23T23:31:25.637Z,21.37
2023-02-23T23:34:00.114Z,22.43
2023-02-23T23:36:33.234Z,22.97
2023-02-23T23:39:10.309Z,22.70
2023-02-23T23:41:49.013Z,22.57
2023-02-23T23:44:18.132Z,21.40
2023-02-23T23:46:50.800Z,21.37
2023-02-23T23:49:26.113Z,22.07
2023-02-23T23:51:57.936Z,22.90
2023-02-23T23:54:38.821Z,22.57
2023-02-23T23:57:13.893Z,22.53
2023-02-23T23:59:55.822Z,22.00
